Time;durP1;ratioP1;P1;durP2;ratioP2;P2;SDS_P1;SDS_P2;PMS_P1;PMS_P2;Temp;Humidity;BMP_temperature;BMP_pressure;BME280_temperature;BME280_humidity;BME280_pressure;Samples;Min_cycle;Max_cycle;Signal;HPM_P1;HPM_P2
2023/01/28 00:00:05;;;;;;;2.45;2.00;;;;;;;17.37;40.98;102914.00;5028275;28;20044;-55
2023/01/28 00:02:34;;;;;;;2.50;2.00;;;;;;;17.38;41.10;102922.94;5028236;28;20018;-57
2023/01/28 00:04:59;;;;;;;2.78;2.00;;;;;;;17.37;41.03;102918.50;5027838;28;20062;-57
2023/01/28 00:07:25;;;;;;;2.15;1.92;;;;;;;17.37;41.24;102910.44;5028250;28;20467;-55
2023/01/28 00:09:50;;;;;;;2.28;2.08;;;;;;;17.38;41.12;102912.19;5027963;28;20029;-59
2023/01/28 00:12:16;;;;;;;2.38;2.13;;;;;;;17.37;40.98;102914.00;5028091;28;20085;-57
2023/01/28 00:14:41;;;;;;;2.33;1.95;;;;;;;17.36;41.00;102914.13;5027974;28;20091;-54
2023/01/28 00:17:06;;;;;;;4.10;2.45;;;;;;;17.37;40.97;102910.44;5027590;28;20034;-58
2023/01/28 00:19:32;;;;;;;3.40;2.15;;;;;;;17.36;41.16;102906.91;5027666;28;20086;-56
2023/01/28 00:21:57;;;;;;;3.17;2.10;;;;;;;17.34;41.19;102903.47;5026965;28;20433;-57
2023/01/28 00:24:22;;;;;;;2.33;1.88;;;;;;;17.35;41.10;102904.34;5027275;28;20045;-57
2023/01/28 00:26:47;;;;;;;2.03;1.80;;;;;;;17.34;41.05;102914.25;5027730;28;20455;-56
2023/01/28 00:29:13;;;;;;;2.60;1.88;;;;;;;17.35;41.02;102924.00;5027747;28;20022;-57
2023/01/28 00:31:39;;;;;;;2.90;2.10;;;;;;;17.34;41.06;102922.31;5027336;28;20045;-56
2023/01/28 00:34:05;;;;;;;2.78;1.98;;;;;;;17.35;41.17;102926.69;5027270;28;20056;-56
2023/01/28 00:36:30;;;;;;;2.28;1.75;;;;;;;17.34;41.04;102925.00;5027533;28;20050;-56
2023/01/28 00:38:57;;;;;;;1.98;1.80;;;;;;;17.35;41.07;102931.22;5026651;28;20088;-57
2023/01/28 00:41:24;;;;;;;2.42;2.00;;;;;;;17.34;41.20;102932.19;5026937;28;20046;-57
2023/01/28 00:43:50;;;;;;;2.45;1.73;;;;;;;17.33;41.20;102931.34;5027407;28;20094;-56
2023/01/28 00:46:16;;;;;;;2.45;1.90;;;;;;;17.33;41.27;102931.34;5027543;28;20036;-55
2023/01/28 00:48:42;;;;;;;2.03;1.83;;;;;;;17.34;41.17;102926.81;5026776;28;20046;-54
2023/01/28 00:51:09;;;;;;;1.70;1.60;;;;;;;17.33;41.13;102922.38;5027546;28;20025;-57
2023/01/28 00:53:35;;;;;;;2.25;1.90;;;;;;;17.34;41.18;102930.38;5027041;28;20036;-55
2023/01/28 00:56:02;;;;;;;1.83;1.60;;;;;;;17.34;41.25;102918.75;5027100;28;20378;-56
2023/01/28 00:58:27;;;;;;;2.00;1.80;;;;;;;17.34;41.11;102921.44;5026696;28;20026;-55
2023/01/28 01:00:53;;;;;;;2.03;1.80;;;;;;;17.33;41.02;102922.38;5026208;28;20029;-53
2023/01/28 01:03:18;;;;;;;2.30;2.10;;;;;;;17.30;41.06;102912.72;5027107;28;20026;-58
2023/01/28 01:05:44;;;;;;;2.28;1.75;;;;;;;17.33;41.20;102917.00;5008941;28;20038;-54
2023/01/28 01:08:09;;;;;;;1.95;1.75;;;;;;;17.33;41.11;102906.25;5026947;28;20089;-57
2023/01/28 01:10:36;;;;;;;1.88;1.48;;;;;;;17.33;41.16;102912.53;5026891;28;20076;-55
2023/01/28 01:13:02;;;;;;;2.10;1.75;;;;;;;17.27;41.05;102904.03;5026744;28;20033;-56
2023/01/28 01:15:27;;;;;;;2.10;1.70;;;;;;;17.33;41.21;102917.00;5027033;28;20026;-52
2023/01/28 01:17:53;;;;;;;1.83;1.73;;;;;;;17.32;41.08;102918.00;5026242;28;20040;-56
2023/01/28 01:20:21;;;;;;;1.75;1.60;;;;;;;17.32;41.13;102921.53;5026596;28;20030;-55
2023/01/28 01:22:46;;;;;;;1.70;1.50;;;;;;;17.29;41.23;102916.41;5006915;28;20038;-56
2023/01/28 01:25:13;;;;;;;2.78;1.80;;;;;;;17.32;41.28;102920.69;5007102;28;20033;-54
2023/01/28 01:27:38;;;;;;;1.75;1.60;;;;;;;17.31;41.28;102914.44;5006902;28;20030;-55
2023/01/28 01:30:06;;;;;;;2.13;1.63;;;;;;;17.32;41.13;102920.69;5007027;28;20078;-56
2023/01/28 01:32:33;;;;;;;2.00;1.80;;;;;;;17.32;41.04;102923.38;5006785;28;20033;-54
2023/01/28 01:34:59;;;;;;;2.05;1.90;;;;;;;17.25;41.02;102909.53;5006528;28;20034;-57
2023/01/28 01:37:24;;;;;;;1.80;1.60;;;;;;;17.31;41.12;102917.13;5006887;28;20029;-57
2023/01/28 01:39:50;;;;;;;2.08;1.50;;;;;;;17.30;41.04;102923.50;5006735;28;20026;-54
2023/01/28 01:42:15;;;;;;;1.90;1.50;;;;;;;17.30;41.35;102926.19;5006668;28;20641;-55
2023/01/28 01:44:59;;;;;;;1.70;1.60;;;;;;;17.31;41.09;102927.88;5007955;28;20101;-54
2023/01/28 01:47:40;;;;;;;2.65;1.70;;;;;;;17.31;41.12;102935.09;5026051;28;20022;-56
2023/01/28 01:50:15;;;;;;;1.80;1.70;;;;;;;17.27;41.16;102929.06;5008471;28;20025;-57
2023/01/28 01:52:41;;;;;;;1.80;1.55;;;;;;;17.30;41.17;102934.25;5008527;28;20032;-54
2023/01/28 01:55:11;;;;;;;1.40;1.30;;;;;;;17.31;41.09;102935.09;5026248;28;20026;-57
2023/01/28 01:57:37;;;;;;;2.00;1.77;;;;;;;17.29;41.29;102931.63;5008572;28;20382;-57
2023/01/28 02:00:06;;;;;;;2.05;1.73;;;;;;;17.30;41.28;102931.56;5008708;28;20408;-57
2023/01/28 02:02:37;;;;;;;1.88;1.60;;;;;;;17.30;41.25;102938.75;5026029;28;20037;-57
2023/01/28 02:05:03;;;;;;;1.80;1.40;;;;;;;17.29;41.13;102943.28;5008129;28;20018;-55
2023/01/28 02:07:29;;;;;;;1.60;1.50;;;;;;;17.29;41.08;102942.41;5026032;28;20061;-53
2023/01/28 02:09:54;;;;;;;1.65;1.55;;;;;;;17.29;41.22;102937.91;5008102;28;20045;-56
2023/01/28 02:12:22;;;;;;;1.45;1.30;;;;;;;17.28;41.13;102946.06;5025845;28;20030;-57
2023/01/28 02:14:52;;;;;;;1.40;1.30;;;;;;;17.29;41.12;102950.47;5025882;28;20068;-57
2023/01/28 02:17:18;;;;;;;2.05;1.60;;;;;;;17.28;41.14;102959.50;5008015;28;20279;-58
2023/01/28 02:19:49;;;;;;;1.73;1.50;;;;;;;17.28;41.10;102951.44;5008147;28;20032;-55
2023/01/28 02:22:18;;;;;;;1.48;1.38;;;;;;;17.27;41.02;102955.97;4992940;28;20019;-53
2023/01/28 02:25:06;;;;;;;1.88;1.58;;;;;;;17.28;41.15;102954.97;5005972;28;20026;-54
2023/01/28 02:28:05;;;;;;;2.15;1.60;;;;;;;17.28;40.99;102963.03;5024534;28;20036;-58
2023/01/28 02:30:38;;;;;;;1.80;1.52;;;;;;;17.28;41.13;102949.59;5007034;28;20383;-57
2023/01/28 02:33:09;;;;;;;1.30;1.20;;;;;;;17.27;41.27;102953.28;5007685;28;20041;-55
2023/01/28 02:35:40;;;;;;;1.38;1.27;;;;;;;17.22;41.00;102940.16;5007809;28;20032;-57
2023/01/28 02:38:13;;;;;;;1.52;1.42;;;;;;;17.20;41.20;102943.91;5007715;28;20041;-55
2023/01/28 02:43:36;;;;;;;1.85;1.38;;;;;;;17.26;41.23;102954.25;5025430;28;20032;-53
2023/01/28 02:49:11;;;;;;;;;;;;;;;17.24;41.18;102946.28;4994634;28;20050;-53
2023/01/28 02:51:57;;;;;;;1.73;1.60;;;;;;;17.25;41.10;102949.84;5007551;28;19924;-55
2023/01/28 02:54:27;;;;;;;1.95;1.50;;;;;;;17.25;41.20;102955.22;5024585;28;20049;-50
2023/01/28 02:57:04;;;;;;;1.40;1.30;;;;;;;17.23;40.98;102952.63;5007789;28;20022;-56
2023/01/28 02:59:37;;;;;;;2.53;1.70;;;;;;;17.24;41.02;102950.78;5007501;28;20545;-56
2023/01/28 03:02:19;;;;;;;1.60;1.50;;;;;;;17.22;41.26;102952.75;5007095;28;20026;-55
2023/01/28 03:05:05;;;;;;;1.80;1.60;;;;;;;17.23;41.13;102954.44;5007101;28;20080;-53
2023/01/28 03:07:33;;;;;;;1.40;1.30;;;;;;;17.23;41.25;102958.00;5024860;28;20030;-55
2023/01/28 03:10:03;;;;;;;1.35;1.20;;;;;;;17.23;41.03;102952.63;5024952;28;20398;-56
2023/01/28 03:37:41;;;;;;;1.60;1.50;;;;;;;17.21;41.05;102948.34;5024683;28;20044;-56
2023/01/28 03:40:07;;;;;;;1.58;1.48;;;;;;;17.20;41.10;102951.97;5024538;28;20033;-56
2023/01/28 03:42:32;;;;;;;1.67;1.45;;;;;;;17.20;41.05;102943.91;5024399;28;20053;-55
2023/01/28 03:45:00;;;;;;;1.60;1.42;;;;;;;17.19;40.97;102948.44;5024738;28;20021;-54
2023/01/28 03:47:27;;;;;;;1.40;1.30;;;;;;;17.20;41.13;102954.66;5025036;28;20072;-56
2023/01/28 03:49:54;;;;;;;1.42;1.30;;;;;;;17.19;40.91;102947.56;5024691;28;20072;-55
2023/01/28 03:52:21;;;;;;;1.40;1.30;;;;;;;17.10;41.17;102932.94;5024582;28;20062;-52
2023/01/28 03:54:48;;;;;;;1.35;1.25;;;;;;;17.18;40.91;102949.41;5024429;28;20112;-57
2023/01/28 03:57:15;;;;;;;1.58;1.48;;;;;;;17.18;40.95;102954.78;5024676;28;20026;-55
2023/01/28 03:59:40;;;;;;;1.40;1.23;;;;;;;17.19;40.98;102961.00;5024135;28;20025;-54
2023/01/28 04:02:06;;;;;;;1.35;1.20;;;;;;;17.19;40.87;102951.13;5024176;28;20571;-51
2023/01/28 04:04:32;;;;;;;1.67;1.58;;;;;;;17.20;40.91;102954.66;5024070;28;20629;-55
2023/01/28 04:06:57;;;;;;;1.60;1.40;;;;;;;17.13;41.11;102939.94;5024323;28;20030;-55
2023/01/28 04:09:23;;;;;;;1.52;1.42;;;;;;;17.19;40.92;102945.75;5024153;28;20040;-51
2023/01/28 04:11:52;;;;;;;1.63;1.52;;;;;;;17.19;40.98;102950.25;5024440;28;20021;-57
2023/01/28 04:14:17;;;;;;;2.40;1.35;;;;;;;17.16;40.89;102948.66;5026084;28;20083;-56
2023/01/28 04:16:43;;;;;;;1.70;1.60;;;;;;;17.19;40.94;102956.50;5028142;28;20112;-53
2023/01/28 04:19:11;;;;;;;1.50;1.40;;;;;;;17.19;41.11;102952.94;5028013;28;20110;-58
2023/01/28 04:21:36;;;;;;;1.30;1.20;;;;;;;17.17;40.89;102957.59;5017805;28;20032;-56
2023/01/28 04:24:01;;;;;;;1.30;1.20;;;;;;;17.18;40.85;102954.78;5008029;28;20117;-54
2023/01/28 04:26:27;;;;;;;1.70;1.55;;;;;;;17.11;40.99;102948.09;5008218;28;20084;-58
2023/01/28 04:28:52;;;;;;;1.48;1.30;;;;;;;17.19;40.92;102966.38;5013383;28;20029;-55
2023/01/28 04:31:18;;;;;;;1.20;1.10;;;;;;;17.18;40.83;102976.28;5027948;28;20026;-56
2023/01/28 04:33:43;;;;;;;1.10;1.10;;;;;;;17.17;41.02;102974.56;5027043;28;20483;-55
2023/01/28 04:36:08;;;;;;;1.63;1.50;;;;;;;17.17;40.82;102971.88;5027797;28;20057;-52
2023/01/28 04:38:34;;;;;;;1.50;1.40;;;;;;;17.17;40.85;102976.41;5027309;28;20398;-54
2023/01/28 04:40:59;;;;;;;1.33;1.23;;;;;;;17.17;41.08;102989.84;5027454;28;20061;-55
2023/01/28 04:43:24;;;;;;;1.10;1.10;;;;;;;17.15;41.03;102991.75;5027649;28;20030;-57
2023/01/28 04:45:50;;;;;;;1.48;1.38;;;;;;;17.16;40.99;102990.78;5027360;28;20413;-56
2023/01/28 04:48:16;;;;;;;1.48;1.38;;;;;;;17.17;40.90;103003.28;5027612;28;20026;-55
2023/01/28 04:50:42;;;;;;;2.47;1.27;;;;;;;17.17;40.93;102993.38;5027257;28;20030;-57
2023/01/28 04:53:07;;;;;;;1.00;1.00;;;;;;;17.15;41.02;102979.19;5009701;28;20053;-56
2023/01/28 04:55:33;;;;;;;1.35;1.25;;;;;;;17.15;40.86;102987.25;5027253;28;20088;-55
2023/01/28 04:57:58;;;;;;;1.60;1.45;;;;;;;17.16;40.76;102990.78;5027105;28;20033;-57
2023/01/28 05:00:23;;;;;;;1.40;1.30;;;;;;;17.16;41.04;102980.03;5009600;28;20029;-57
2023/01/28 05:02:49;;;;;;;1.25;1.15;;;;;;;17.15;40.93;102981.00;5027063;28;20034;-55
2023/01/28 05:05:14;;;;;;;1.40;1.30;;;;;;;17.15;41.01;102972.94;5026706;28;20038;-54
2023/01/28 05:07:39;;;;;;;1.30;1.20;;;;;;;17.14;40.95;102971.22;5026789;28;20053;-53
2023/01/28 05:10:05;;;;;;;1.30;1.20;;;;;;;17.14;40.95;102972.09;5026972;28;20061;-54
2023/01/28 05:12:31;;;;;;;1.20;1.10;;;;;;;17.11;40.85;102956.16;5026925;28;20033;-54
2023/01/28 05:14:59;;;;;;;1.40;1.30;;;;;;;17.14;40.82;102952.41;5027094;28;20033;-56
2023/01/28 05:17:25;;;;;;;1.70;1.35;;;;;;;17.13;40.76;102956.06;5026898;28;20551;-55
2023/01/28 05:19:50;;;;;;;1.25;1.05;;;;;;;17.12;40.83;102944.47;5026676;28;20029;-58
2023/01/28 05:22:15;;;;;;;1.25;1.10;;;;;;;17.11;40.78;102953.47;5025495;28;20068;-56
2023/01/28 05:24:41;;;;;;;1.30;1.10;;;;;;;17.12;40.83;102949.84;5000617;28;20035;-58
2023/01/28 05:27:06;;;;;;;2.22;2.03;;;;;;;17.11;41.10;102958.84;5025869;28;20044;-57
2023/01/28 05:29:31;;;;;;;1.52;1.42;;;;;;;16.99;40.88;102938.19;5026213;28;20037;-57
2023/01/28 05:31:56;;;;;;;1.73;1.27;;;;;;;17.10;40.78;102951.75;5019281;28;20030;-58
2023/01/28 05:34:22;;;;;;;1.20;1.10;;;;;;;17.11;41.03;102945.41;5011923;28;20111;-57
2023/01/28 05:36:47;;;;;;;1.52;1.42;;;;;;;17.06;40.85;102941.34;5017787;28;20022;-57
2023/01/28 05:39:12;;;;;;;1.30;1.20;;;;;;;17.03;40.89;102941.53;5020576;28;20110;-57
2023/01/28 05:41:38;;;;;;;1.35;1.10;;;;;;;17.10;40.99;102962.50;5019695;28;20051;-53
2023/01/28 05:44:03;;;;;;;1.17;1.10;;;;;;;17.10;40.80;102970.56;5018427;28;20537;-57
2023/01/28 05:46:28;;;;;;;1.40;1.30;;;;;;;17.10;40.82;102965.19;5025954;28;20085;-56
2023/01/28 05:48:53;;;;;;;1.15;1.10;;;;;;;17.10;40.86;102957.13;5025603;28;20026;-57
2023/01/28 05:51:19;;;;;;;1.20;1.20;;;;;;;17.09;40.85;102962.63;5026310;28;20097;-57
2023/01/28 05:53:44;;;;;;;1.20;1.10;;;;;;;17.10;40.86;102967.03;5025748;28;20022;-57
2023/01/28 05:56:09;;;;;;;1.30;1.20;;;;;;;17.09;40.86;102968.00;5025891;28;20037;-54
2023/01/28 05:58:35;;;;;;;1.30;1.20;;;;;;;17.09;40.78;102959.94;5025031;28;20030;-56
2023/01/28 06:01:00;;;;;;;1.63;1.23;;;;;;;17.09;41.00;102958.13;5020005;28;20033;-52
2023/01/28 06:03:25;;;;;;;1.40;1.30;;;;;;;17.11;41.15;102966.06;5021945;28;20026;-57
2023/01/28 06:05:50;;;;;;;1.20;1.10;;;;;;;17.10;40.99;102970.56;5019614;28;20034;-57
2023/01/28 06:08:16;;;;;;;1.40;1.20;;;;;;;17.11;41.09;102963.38;5011857;28;20053;-58
2023/01/28 06:10:41;;;;;;;1.75;1.45;;;;;;;17.09;41.07;102957.25;5014708;28;20057;-58
2023/01/28 06:13:06;;;;;;;4.50;1.67;;;;;;;17.12;41.09;102959.72;5014735;28;20022;-57
2023/01/28 06:15:32;;;;;;;2.75;1.40;;;;;;;17.07;41.24;102951.97;5018717;28;20074;-56
2023/01/28 06:17:58;;;;;;;1.40;1.05;;;;;;;17.12;41.40;102955.22;5016607;28;20038;-58
2023/01/28 06:20:23;;;;;;;1.85;1.02;;;;;;;17.14;41.59;102953.28;5016477;28;20029;-57
2023/01/28 06:22:52;;;;;;;1.55;1.27;;;;;;;17.15;41.76;102960.38;5011751;28;20030;-58
2023/01/28 06:25:17;;;;;;;1.30;1.20;;;;;;;17.17;41.85;102962.97;5016123;28;20017;-56
2023/01/28 06:27:43;;;;;;;4.88;1.27;;;;;;;17.17;41.90;102953.06;5011230;28;20080;-54
2023/01/28 06:30:09;;;;;;;1.30;1.20;;;;;;;17.19;41.88;102963.69;5016368;28;20033;-57
2023/01/28 06:32:34;;;;;;;1.50;1.40;;;;;;;17.15;41.93;102960.38;5019333;28;20037;-57
2023/01/28 06:34:59;;;;;;;1.52;1.42;;;;;;;17.19;42.00;102963.69;5023044;28;20037;-54
2023/01/28 06:37:25;;;;;;;4.78;1.38;;;;;;;17.19;42.13;102964.56;5023167;28;20030;-57
2023/01/28 06:39:50;;;;;;;1.40;1.30;;;;;;;17.20;42.28;102966.31;5018294;28;20025;-56
2023/01/28 06:42:15;;;;;;;1.25;1.10;;;;;;;17.07;42.29;102943.06;5010103;28;20065;-57
2023/01/28 06:44:41;;;;;;;2.05;1.30;;;;;;;17.21;42.00;102961.78;5022208;28;20112;-56
2023/01/28 06:47:06;;;;;;;1.30;1.20;;;;;;;17.21;42.37;102970.69;5021726;28;20032;-56
2023/01/28 06:49:31;;;;;;;1.20;1.10;;;;;;;17.19;42.18;102971.75;5016364;28;20037;-57
2023/01/28 06:51:56;;;;;;;1.25;1.15;;;;;;;17.21;42.06;102983.28;5019552;28;20030;-56
2023/01/28 06:54:22;;;;;;;1.40;1.30;;;;;;;17.16;42.02;102970.16;5013911;28;20045;-56
2023/01/28 06:56:47;;;;;;;2.53;1.20;;;;;;;17.19;42.07;102974.44;5019464;28;20034;-55
2023/01/28 06:59:12;;;;;;;2.20;1.30;;;;;;;17.23;42.08;102981.34;5013253;28;20060;-57
2023/01/28 07:01:37;;;;;;;1.35;1.25;;;;;;;17.24;42.27;102991.13;5018846;28;20033;-56
2023/01/28 07:04:03;;;;;;;1.30;1.20;;;;;;;17.23;42.14;103000.16;5016583;28;20036;-52
2023/01/28 07:06:28;;;;;;;1.60;1.25;;;;;;;17.25;42.15;102995.56;5019422;28;20486;-57
2023/01/28 07:08:53;;;;;;;1.13;1.10;;;;;;;17.24;42.38;103000.03;5022979;28;20030;-54
2023/01/28 07:11:19;;;;;;;1.88;1.30;;;;;;;17.26;42.36;103004.47;5014571;28;20049;-56
2023/01/28 07:13:45;;;;;;;1.77;1.20;;;;;;;17.25;42.37;102990.16;5018864;28;20033;-55
2023/01/28 07:16:10;;;;;;;2.17;1.10;;;;;;;17.29;42.20;103002.44;5016150;28;20391;-55
2023/01/28 07:18:35;;;;;;;1.27;1.27;;;;;;;17.31;42.12;103005.00;5001482;28;20044;-56
2023/01/28 07:21:01;;;;;;;2.92;1.20;;;;;;;17.30;42.08;103001.47;5024460;28;20041;-55
2023/01/28 07:23:26;;;;;;;1.65;1.30;;;;;;;17.33;41.92;103000.38;5012937;28;20030;-58
2023/01/28 07:25:51;;;;;;;2.83;1.40;;;;;;;17.34;42.22;102996.72;5013042;28;20050;-58
2023/01/28 07:28:20;;;;;;;1.42;1.30;;;;;;;17.33;42.23;102998.56;5019063;28;20033;-57
2023/01/28 07:30:49;;;;;;;2.10;1.88;;;;;;;17.33;42.12;103009.31;5024439;28;20297;-55
2023/01/28 07:33:14;;;;;;;1.23;1.13;;;;;;;17.34;42.18;103005.66;5014783;28;20042;-57
2023/01/28 07:35:40;;;;;;;1.50;1.30;;;;;;;17.35;42.01;103010.06;5018208;28;20084;-58
2023/01/28 07:38:05;;;;;;;1.95;1.20;;;;;;;17.35;41.99;103006.50;5012079;28;20018;-56
2023/01/28 07:40:30;;;;;;;3.42;1.52;;;;;;;17.35;41.97;103018.13;5010911;28;20034;-56
2023/01/28 07:42:56;;;;;;;1.50;1.40;;;;;;;17.36;42.01;103018.97;5018402;28;20029;-56
2023/01/28 07:45:22;;;;;;;1.42;1.33;;;;;;;17.35;41.95;103018.13;5015935;28;20030;-56
2023/01/28 07:47:59;;;;;;;1.83;1.55;;;;;;;17.34;41.91;103019.09;5022003;28;20038;-57
2023/01/28 07:50:25;;;;;;;1.40;1.30;;;;;;;17.36;41.91;103029.72;5023084;28;20022;-56
2023/01/28 07:52:50;;;;;;;1.70;1.60;;;;;;;17.37;41.65;103036.81;5017156;28;20030;-56
2023/01/28 07:55:15;;;;;;;2.20;1.30;;;;;;;17.36;41.98;103030.59;5020661;28;20101;-55
2023/01/28 07:57:49;;;;;;;1.65;1.42;;;;;;;17.36;41.87;103035.97;4997914;28;20034;-58
2023/01/28 08:00:14;;;;;;;1.73;1.50;;;;;;;17.34;41.70;103034.38;5017285;28;20025;-58
2023/01/28 08:02:40;;;;;;;1.63;1.52;;;;;;;17.37;41.77;103040.38;5017765;28;20040;-55
2023/01/28 08:05:05;;;;;;;1.60;1.50;;;;;;;17.38;41.91;103043.94;5015963;28;20021;-57
2023/01/28 08:07:30;;;;;;;2.60;1.70;;;;;;;17.41;41.80;103052.63;5022453;28;20050;-58
2023/01/28 08:09:56;;;;;;;2.03;1.73;;;;;;;17.41;41.68;103057.16;5024457;28;20021;-58
2023/01/28 08:12:21;;;;;;;2.22;1.65;;;;;;;17.42;41.58;103056.22;5024430;28;20022;-55
2023/01/28 08:14:46;;;;;;;1.77;1.50;;;;;;;17.42;41.36;103050.84;5020141;28;20032;-55
2023/01/28 08:17:12;;;;;;;2.65;1.60;;;;;;;17.42;41.38;103050.84;5019675;28;20030;-59
2023/01/28 08:19:37;;;;;;;1.60;1.50;;;;;;;17.40;41.36;103050.94;5020775;28;20040;-54
2023/01/28 08:22:02;;;;;;;3.80;1.90;;;;;;;17.40;41.46;103045.53;5023395;28;20372;-53
2023/01/28 08:24:27;;;;;;;1.92;1.67;;;;;;;17.41;41.47;103051.78;5021565;28;20121;-56
2023/01/28 08:26:52;;;;;;;1.60;1.50;;;;;;;17.39;41.36;103048.34;5018865;28;20041;-58
2023/01/28 08:29:18;;;;;;;2.22;1.50;;;;;;;17.38;41.40;103050.19;5011300;28;20090;-59
2023/01/28 08:31:43;;;;;;;1.60;1.50;;;;;;;17.41;41.34;103067.91;5013577;28;20029;-54
2023/01/28 08:34:08;;;;;;;2.08;1.50;;;;;;;17.39;41.02;103064.50;5011057;28;20022;-59
2023/01/28 08:36:34;;;;;;;1.70;1.60;;;;;;;17.41;41.50;103066.09;5013968;28;20042;-56
2023/01/28 08:38:59;;;;;;;1.70;1.60;;;;;;;17.41;41.33;103052.63;5012823;28;20026;-54
2023/01/28 08:41:24;;;;;;;1.70;1.60;;;;;;;17.43;41.09;103052.56;5024669;28;20052;-59
2023/01/28 08:43:49;;;;;;;1.67;1.58;;;;;;;17.38;41.37;103052.03;5022743;28;20081;-56
2023/01/28 08:46:15;;;;;;;1.45;1.33;;;;;;;17.42;41.15;103072.34;5026449;28;20022;-56
2023/01/28 08:48:41;;;;;;;3.15;1.60;;;;;;;17.41;41.17;103071.47;5012821;28;20048;-54
2023/01/28 08:51:06;;;;;;;2.30;1.40;;;;;;;17.42;41.19;103057.06;5024316;28;20033;-57
2023/01/28 08:53:32;;;;;;;1.77;1.67;;;;;;;17.39;41.22;103045.66;5026029;28;20026;-54
2023/01/28 08:55:57;;;;;;;1.80;1.70;;;;;;;17.42;40.86;103070.53;5026036;28;20029;-56
2023/01/28 08:58:22;;;;;;;4.63;1.63;;;;;;;17.43;40.99;103063.31;5025856;28;20051;-57
2023/01/28 09:00:49;;;;;;;1.70;1.60;;;;;;;17.41;41.02;103068.78;5025178;28;20455;-55
2023/01/28 09:03:14;;;;;;;1.90;1.73;;;;;;;17.42;40.94;103086.66;5009589;28;20033;-52
2023/01/28 09:05:40;;;;;;;1.63;1.52;;;;;;;17.38;40.91;103086.97;5021453;28;20097;-58
2023/01/28 09:08:08;;;;;;;1.60;1.50;;;;;;;17.42;41.07;103092.03;5007296;28;20030;-56
2023/01/28 09:10:33;;;;;;;1.98;1.77;;;;;;;17.43;40.96;103092.88;5018277;28;20026;-59
2023/01/28 09:13:03;;;;;;;1.58;1.48;;;;;;;17.43;41.06;103074.94;5011774;28;20023;-58
2023/01/28 09:15:28;;;;;;;1.50;1.40;;;;;;;17.45;41.07;103083.72;5022958;28;20502;-58
2023/01/28 09:17:57;;;;;;;1.65;1.50;;;;;;;17.46;40.88;103084.63;4995340;28;20021;-57
2023/01/28 09:20:23;;;;;;;1.80;1.70;;;;;;;17.33;40.81;103054.13;5016662;28;20030;-56
2023/01/28 09:22:48;;;;;;;1.48;1.38;;;;;;;17.51;40.59;103087.00;5013206;28;20031;-58
2023/01/28 09:25:13;;;;;;;1.70;1.60;;;;;;;17.51;40.71;103081.59;5023179;28;20072;-59
2023/01/28 09:27:38;;;;;;;3.83;1.98;;;;;;;17.51;40.89;103097.75;5022171;28;20030;-56
2023/01/28 09:30:05;;;;;;;1.50;1.35;;;;;;;17.50;40.76;103099.59;5013969;28;20113;-56
2023/01/28 09:32:31;;;;;;;1.58;1.48;;;;;;;17.53;40.81;103093.09;5015181;28;20410;-58
2023/01/28 09:34:56;;;;;;;1.45;1.20;;;;;;;17.57;40.68;103097.31;5020372;28;20097;-54
2023/01/28 09:37:21;;;;;;;1.60;1.50;;;;;;;17.60;40.40;103110.56;5009922;28;20030;-57
2023/01/28 09:39:47;;;;;;;1.60;1.50;;;;;;;17.65;40.60;103119.16;5023074;28;20025;-58
2023/01/28 09:42:26;;;;;;;1.88;1.60;;;;;;;17.67;40.50;103112.72;5025966;28;20105;-58
2023/01/28 09:45:00;;;;;;;;;;;;;;;17.69;40.16;103128.75;5015545;28;20026;-59
2023/01/28 09:47:31;;;;;;;2.30;1.60;;;;;;;17.70;40.29;103133.16;5023609;28;19957;-59
2023/01/28 09:49:59;;;;;;;1.73;1.42;;;;;;;17.69;40.25;103132.28;4995140;28;20029;-58
2023/01/28 09:52:25;;;;;;;2.30;1.30;;;;;;;17.70;40.33;103133.16;4998265;28;20086;-59
2023/01/28 09:55:05;;;;;;;1.65;1.40;;;;;;;17.71;40.22;103130.38;5019793;28;20033;-59
2023/01/28 09:57:38;;;;;;;1.42;1.27;;;;;;;17.71;40.09;103127.69;4991944;28;20026;-59
2023/01/28 10:00:12;;;;;;;1.50;1.40;;;;;;;17.64;40.17;103099.47;5018444;28;20436;-52
2023/01/28 10:03:05;;;;;;;1.90;1.48;;;;;;;17.74;40.13;103115.84;5017637;28;20048;-58
2023/01/28 10:05:36;;;;;;;1.83;1.30;;;;;;;17.73;40.11;103127.56;5018197;28;20037;-58
2023/01/28 10:08:33;;;;;;;1.67;1.50;;;;;;;17.76;40.13;103134.59;4988492;28;20030;-60
2023/01/28 10:11:13;;;;;;;1.73;1.10;;;;;;;17.77;40.15;103136.31;5020226;28;20420;-59
2023/01/28 10:13:47;;;;;;;1.70;1.27;;;;;;;17.77;40.09;103137.19;5009603;28;20018;-60
2023/01/28 10:16:35;;;;;;;1.65;1.55;;;;;;;17.77;40.11;103133.63;4998622;28;20533;-59
2023/01/28 10:19:26;;;;;;;1.70;1.60;;;;;;;17.77;39.98;103134.47;5020448;28;20021;-55
2023/01/28 10:21:55;;;;;;;1.55;1.45;;;;;;;17.72;40.22;103121.31;5011852;28;20395;-59
2023/01/28 10:24:37;;;;;;;1.92;1.25;;;;;;;17.77;40.10;103129.09;5015462;28;20049;-59
2023/01/28 10:27:10;;;;;;;1.33;1.23;;;;;;;17.77;40.24;103129.09;5025336;28;20025;-56
2023/01/28 10:29:38;;;;;;;1.40;1.30;;;;;;;17.78;39.89;103111.97;4991642;28;20017;-61
2023/01/28 10:32:25;;;;;;;1.50;1.40;;;;;;;17.84;39.84;103113.38;5007684;28;20030;-60
2023/01/28 10:34:51;;;;;;;1.35;1.25;;;;;;;17.85;39.81;103120.50;4995481;28;20538;-60
2023/01/28 10:37:16;;;;;;;1.27;1.17;;;;;;;17.86;39.94;103114.13;5020936;28;20076;-60
2023/01/28 10:39:42;;;;;;;1.92;1.10;;;;;;;17.82;39.94;103091.97;5024533;28;20037;-60
2023/01/28 10:42:31;;;;;;;1.90;1.15;;;;;;;17.90;39.63;103086.03;5007476;28;20038;-58
2023/01/28 10:44:59;;;;;;;5.03;1.40;;;;;;;17.90;39.78;103094.97;5025180;28;20040;-59
2023/01/28 10:47:45;;;;;;;1.40;1.30;;;;;;;17.87;39.92;103087.09;5025259;28;20040;-59
2023/01/28 10:50:22;;;;;;;1.15;1.10;;;;;;;17.87;40.03;103084.41;5007569;28;20025;-59
2023/01/28 10:52:58;;;;;;;1.00;1.00;;;;;;;17.88;40.00;103082.59;5025254;28;20053;-59
2023/01/28 10:55:26;;;;;;;1.83;1.20;;;;;;;17.86;39.88;103080.00;5025151;28;20037;-59
2023/01/28 10:57:52;;;;;;;1.10;1.10;;;;;;;17.84;40.03;103087.34;5024985;28;20053;-59
2023/01/28 11:00:22;;;;;;;3.55;1.25;;;;;;;17.87;39.82;103086.25;5007581;28;20033;-59
2023/01/28 11:02:48;;;;;;;1.30;1.20;;;;;;;17.86;39.94;103071.94;5007234;28;20026;-59
2023/01/28 11:05:19;;;;;;;2.33;1.00;;;;;;;17.88;39.87;103075.41;5024129;28;20112;-59
2023/01/28 11:07:47;;;;;;;2.35;1.10;;;;;;;17.83;39.93;103045.25;5024405;28;20029;-59
2023/01/28 11:10:30;;;;;;;1.65;1.13;;;;;;;17.89;40.03;103031.38;5024357;28;20419;-59
2023/01/28 11:12:58;;;;;;;1.85;1.33;;;;;;;17.88;39.89;103018.00;5024525;28;20029;-59
2023/01/28 11:15:24;;;;;;;1.08;1.08;;;;;;;17.87;40.03;103011.75;5024577;28;20426;-59
2023/01/28 11:17:58;;;;;;;3.08;1.10;;;;;;;17.81;39.89;103003.28;5024229;28;20029;-59
2023/01/28 11:20:26;;;;;;;1.70;1.20;;;;;;;17.87;39.94;103010.91;5005215;28;20089;-59
2023/01/28 11:22:51;;;;;;;1.27;1.17;;;;;;;17.86;40.00;103001.13;5004350;28;20104;-59
2023/01/28 11:25:20;;;;;;;1.20;1.20;;;;;;;17.88;39.72;103000.03;5013052;28;20744;-59
2023/01/28 11:27:50;;;;;;;1.35;1.20;;;;;;;17.89;39.80;102995.53;5030881;28;20026;-59
2023/01/28 11:30:27;;;;;;;1.10;1.10;;;;;;;17.90;39.76;102983.78;5031021;28;20026;-58
2023/01/28 11:33:11;;;;;;;1.17;1.08;;;;;;;17.91;39.88;102988.19;5013010;28;20017;-59
2023/01/28 11:35:36;;;;;;;1.58;1.00;;;;;;;17.92;39.90;102992.59;5030437;28;20057;-59
2023/01/28 11:38:01;;;;;;;1.00;1.00;;;;;;;17.91;40.05;102980.09;5030949;28;20034;-59
2023/01/28 11:40:27;;;;;;;2.35;1.05;;;;;;;17.92;40.18;102965.66;5030636;28;20033;-56
2023/01/28 11:42:58;;;;;;;2.95;1.23;;;;;;;17.91;40.16;102964.81;5030826;28;20021;-59
2023/01/28 11:45:41;;;;;;;1.05;0.90;;;;;;;17.92;40.21;102974.59;5013798;28;20500;-59
2023/01/28 11:48:06;;;;;;;1.27;1.17;;;;;;;17.93;40.30;102965.59;5006487;28;20034;-59
2023/01/28 11:50:39;;;;;;;1.13;1.00;;;;;;;17.93;40.31;102979.03;5030612;28;20457;-59
2023/01/28 11:53:19;;;;;;;1.00;1.00;;;;;;;17.64;40.39;102942.59;5013138;28;20372;-59
2023/01/28 11:56:12;;;;;;;1.30;1.20;;;;;;;17.95;40.39;102997.75;5012782;28;20022;-59
2023/01/28 11:58:45;;;;;;;1.00;1.00;;;;;;;17.97;40.40;103004.75;5029962;28;20029;-59
2023/01/28 12:01:16;;;;;;;1.15;1.08;;;;;;;17.98;40.48;102987.63;5013179;28;20064;-59